createdAt,value
2023-04-08T00:00:59.457Z,994.89
2023-04-08T00:02:01.241Z,994.93
2023-04-08T00:03:03.212Z,994.9
2023-04-08T00:04:05.048Z,994.89
2023-04-08T00:05:06.397Z,994.91
2023-04-08T00:06:08.151Z,994.89
2023-04-08T00:07:09.893Z,994.88
2023-04-08T00:08:11.608Z,994.87
2023-04-08T00:09:13.338Z,994.89
2023-04-08T00:10:15.112Z,994.89
2023-04-08T00:11:16.793Z,994.9
2023-04-08T00:12:18.533Z,994.89
2023-04-08T00:13:20.276Z,994.88
2023-04-08T00:14:22.019Z,994.88
2023-04-08T00:15:23.737Z,994.88
2023-04-08T00:16:25.488Z,994.87
2023-04-08T00:17:27.245Z,994.92
2023-04-08T00:18:28.927Z,994.9
2023-04-08T00:19:30.673Z,994.93
2023-04-08T00:20:32.402Z,994.91
2023-04-08T00:21:34.129Z,994.94
2023-04-08T00:22:35.859Z,994.93
2023-04-08T00:23:37.597Z,994.93
2023-04-08T00:24:39.324Z,994.95
2023-04-08T00:25:41.096Z,994.95
2023-04-08T00:26:42.785Z,994.96
2023-04-08T00:27:44.521Z,994.95
2023-04-08T00:28:46.257Z,994.97
2023-04-08T00:29:47.984Z,995.01
2023-04-08T00:30:49.765Z,994.99
2023-04-08T00:31:51.473Z,994.97
2023-04-08T00:32:53.203Z,994.97
2023-04-08T00:33:54.926Z,994.99
2023-04-08T00:34:56.662Z,994.94
2023-04-08T00:35:58.487Z,994.96
2023-04-08T00:37:00.185Z,994.95
2023-04-08T00:38:02.093Z,994.94
2023-04-08T00:39:03.621Z,994.96
2023-04-08T00:40:05.335Z,994.96
2023-04-08T00:41:07.059Z,994.99
2023-04-08T00:42:08.801Z,995
2023-04-08T00:43:10.532Z,994.95
2023-04-08T00:44:12.265Z,994.93
2023-04-08T00:45:14.005Z,994.92
2023-04-08T00:46:15.835Z,994.96
2023-04-08T00:47:17.464Z,994.92
2023-04-08T00:48:19.267Z,994.9
2023-04-08T00:49:20.941Z,994.92
2023-04-08T00:50:22.667Z,994.95
2023-04-08T00:51:24.425Z,994.98
2023-04-08T00:52:26.163Z,994.94
2023-04-08T00:53:27.875Z,994.95
2023-04-08T00:54:29.621Z,994.89
2023-04-08T00:55:31.328Z,994.98
2023-04-08T00:56:33.054Z,994.98
2023-04-08T00:57:34.802Z,994.99
2023-04-08T00:58:36.575Z,994.97
2023-04-08T00:59:38.279Z,994.97
2023-04-08T01:00:40.000Z,994.97
2023-04-08T01:01:41.779Z,994.98
2023-04-08T01:02:43.639Z,994.95
2023-04-08T01:03:45.587Z,994.98
2023-04-08T01:04:46.958Z,994.94
2023-04-08T01:05:48.708Z,995
2023-04-08T01:06:50.397Z,995
2023-04-08T01:07:52.282Z,994.99
2023-04-08T01:08:53.863Z,995
2023-04-08T01:09:55.631Z,994.99
2023-04-08T01:10:57.336Z,994.98
2023-04-08T01:11:59.105Z,995
2023-04-08T01:13:00.791Z,994.97
2023-04-08T01:14:02.541Z,994.99
2023-04-08T01:15:04.257Z,995
2023-04-08T01:16:06.081Z,995
2023-04-08T01:17:07.748Z,995.02
2023-04-08T01:18:09.464Z,994.99
2023-04-08T01:19:11.207Z,994.96
2023-04-08T01:20:12.941Z,994.97
2023-04-08T01:21:14.731Z,994.97
2023-04-08T01:22:16.393Z,994.91
2023-04-08T01:23:18.152Z,994.97
2023-04-08T01:24:19.866Z,994.96
2023-04-08T01:25:21.774Z,995
2023-04-08T01:26:23.356Z,994.95
2023-04-08T01:27:25.069Z,995
2023-04-08T01:28:27.015Z,994.89
2023-04-08T01:29:28.546Z,994.96
2023-04-08T01:30:30.257Z,994.92
2023-04-08T01:31:32.210Z,994.97
2023-04-08T01:32:33.777Z,994.99
2023-04-08T01:33:35.503Z,994.96
2023-04-08T01:34:37.215Z,994.96
2023-04-08T01:35:38.950Z,994.92
2023-04-08T01:36:40.660Z,994.92
2023-04-08T01:37:42.413Z,994.97
2023-04-08T01:38:44.148Z,994.95
2023-04-08T01:39:45.878Z,994.95
2023-04-08T01:40:47.635Z,994.96
2023-04-08T01:41:49.346Z,994.97
2023-04-08T01:42:51.105Z,994.98
2023-04-08T01:43:52.822Z,994.96
2023-04-08T01:44:54.539Z,994.95
2023-04-08T01:45:56.287Z,994.94
2023-04-08T01:46:58.103Z,994.96
2023-04-08T01:47:59.814Z,994.92
2023-04-08T01:49:01.459Z,994.92
2023-04-08T01:50:03.202Z,994.95
2023-04-08T01:51:05.079Z,994.91
2023-04-08T01:52:06.702Z,994.92
2023-04-08T01:53:08.391Z,994.91
2023-04-08T01:54:10.140Z,994.88
2023-04-08T01:55:11.877Z,994.93
2023-04-08T01:56:13.588Z,994.87
2023-04-08T01:57:15.338Z,994.92
2023-04-08T01:58:17.083Z,994.91
2023-04-08T01:59:18.774Z,994.95
2023-04-08T02:00:20.575Z,994.92
2023-04-08T02:01:22.293Z,994.9
2023-04-08T02:02:24.217Z,994.94
2023-04-08T02:03:25.915Z,994.92
2023-04-08T02:04:27.544Z,994.92
2023-04-08T02:05:29.184Z,994.94
2023-04-08T02:06:30.889Z,994.92
2023-04-08T02:07:32.655Z,994.91
2023-04-08T02:08:34.377Z,994.94
2023-04-08T02:09:36.126Z,994.91
2023-04-08T02:10:37.838Z,994.85
2023-04-08T02:11:40.089Z,994.92
2023-04-08T02:12:41.360Z,994.88
2023-04-08T02:13:43.102Z,994.95
2023-04-08T02:14:44.819Z,994.9
2023-04-08T02:15:46.578Z,994.96
2023-04-08T02:16:48.471Z,994.98
2023-04-08T02:17:50.083Z,995
2023-04-08T02:18:52.051Z,995
2023-04-08T02:19:53.456Z,995
2023-04-08T02:20:55.214Z,995.02
2023-04-08T02:21:56.947Z,995.01
2023-04-08T02:22:58.660Z,995.03
2023-04-08T02:24:02.641Z,994.99
2023-04-08T02:25:02.136Z,995.01
2023-04-08T02:26:03.892Z,995.03
2023-04-08T02:27:05.585Z,995.03
2023-04-08T02:28:07.348Z,995.01
2023-04-08T02:29:09.068Z,994.98
2023-04-08T02:30:10.804Z,994.99
2023-04-08T02:31:12.550Z,995.05
2023-04-08T02:32:14.291Z,994.99
2023-04-08T02:33:16.048Z,995.02
2023-04-08T02:34:17.743Z,995.02
2023-04-08T02:35:19.500Z,995.03
2023-04-08T02:36:21.201Z,995.04
2023-04-08T02:37:22.982Z,995.05
2023-04-08T02:38:24.646Z,995.02
2023-04-08T02:39:26.405Z,995.04
2023-04-08T02:40:28.176Z,995.03
2023-04-08T02:41:29.895Z,995.04
2023-04-08T02:42:31.612Z,995.03
2023-04-08T02:43:33.358Z,995.03
2023-04-08T02:44:35.261Z,995.07
2023-04-08T02:45:36.841Z,995.04
2023-04-08T02:46:38.671Z,995.01
2023-04-08T02:47:40.429Z,995.06
2023-04-08T02:48:41.989Z,995.04
2023-04-08T02:49:43.739Z,995.07
2023-04-08T02:50:45.450Z,995
2023-04-08T02:51:47.230Z,995.07
2023-04-08T02:52:48.952Z,995.04
2023-04-08T02:53:50.700Z,995.02
2023-04-08T02:54:52.441Z,995.03
2023-04-08T02:55:54.145Z,994.98
2023-04-08T02:56:55.884Z,995.03
2023-04-08T02:57:57.611Z,995.02
2023-04-08T02:58:59.313Z,995.06
2023-04-08T03:00:01.047Z,994.99
2023-04-08T03:01:02.860Z,995.08
2023-04-08T03:02:04.642Z,995.07
2023-04-08T03:03:06.438Z,995.06
2023-04-08T03:04:08.016Z,995.06
2023-04-08T03:05:09.733Z,995.05
2023-04-08T03:06:11.448Z,995.08
2023-04-08T03:07:13.223Z,995.01
2023-04-08T03:08:14.914Z,995.09
2023-04-08T03:09:16.673Z,995.11
2023-04-08T03:10:18.378Z,995.08
2023-04-08T03:11:20.116Z,995.12
2023-04-08T03:12:21.854Z,995.11
2023-04-08T03:13:23.602Z,995.11
2023-04-08T03:14:25.337Z,995.14
2023-04-08T03:15:27.043Z,995.15
2023-04-08T03:16:28.817Z,995.11
2023-04-08T03:17:30.566Z,995.18
2023-04-08T03:18:32.243Z,995.17
2023-04-08T03:19:34.016Z,995.14
2023-04-08T03:20:35.754Z,995.12
2023-04-08T03:21:37.450Z,995.15
2023-04-08T03:22:39.178Z,995.14
2023-04-08T03:23:40.910Z,995.17
2023-04-08T03:24:42.642Z,995.19
2023-04-08T03:25:44.421Z,995.18
2023-04-08T03:26:46.175Z,995.18
2023-04-08T03:27:47.902Z,995.17
2023-04-08T03:28:49.929Z,995.18
2023-04-08T03:29:51.320Z,995.16
2023-04-08T03:30:53.091Z,995.19
2023-04-08T03:31:54.870Z,995.19
2023-04-08T03:32:56.590Z,995.18
2023-04-08T03:33:58.256Z,995.24
2023-04-08T03:35:00.013Z,995.19
2023-04-08T03:36:01.724Z,995.24
2023-04-08T03:37:03.480Z,995.22
2023-04-08T03:38:05.248Z,995.2
2023-04-08T03:39:06.945Z,995.24
2023-04-08T03:40:08.661Z,995.27
2023-04-08T03:41:10.383Z,995.26
2023-04-08T03:42:12.126Z,995.26
2023-04-08T03:43:13.898Z,995.27
2023-04-08T03:44:15.636Z,995.24
2023-04-08T03:45:17.311Z,995.27
2023-04-08T03:46:19.086Z,995.29
2023-04-08T03:47:20.770Z,995.3
2023-04-08T03:48:22.553Z,995.25
2023-04-08T03:49:24.318Z,995.3
2023-04-08T03:50:26.008Z,995.33
2023-04-08T03:51:27.725Z,995.32
2023-04-08T03:52:29.488Z,995.29
2023-04-08T03:53:31.174Z,995.29
2023-04-08T03:54:33.016Z,995.34
2023-04-08T03:55:34.677Z,995.31
2023-04-08T03:56:36.448Z,995.28
2023-04-08T03:57:38.352Z,995.31
2023-04-08T03:58:39.839Z,995.32
2023-04-08T03:59:41.572Z,995.32
2023-04-08T04:00:43.314Z,995.31
2023-04-08T04:01:45.108Z,995.36
2023-04-08T04:02:46.994Z,995.29
2023-04-08T04:03:48.677Z,995.31
2023-04-08T04:04:50.295Z,995.31
2023-04-08T04:05:52.155Z,995.25
2023-04-08T04:06:53.742Z,995.32
2023-04-08T04:07:55.442Z,995.29
2023-04-08T04:08:57.207Z,995.33
2023-04-08T04:09:58.921Z,995.32
2023-04-08T04:11:00.696Z,995.34
2023-04-08T04:12:02.421Z,995.29
2023-04-08T04:13:04.147Z,995.3
2023-04-08T04:14:05.871Z,995.26
2023-04-08T04:15:07.585Z,995.35
2023-04-08T04:16:09.344Z,995.4
2023-04-08T04:17:11.065Z,995.38
2023-04-08T04:18:12.829Z,995.39
2023-04-08T04:19:14.548Z,995.38
2023-04-08T04:20:16.269Z,995.4
2023-04-08T04:21:17.967Z,995.37
2023-04-08T04:22:19.707Z,995.39
2023-04-08T04:23:21.429Z,995.39
2023-04-08T04:24:23.191Z,995.37
2023-04-08T04:25:24.923Z,995.34
2023-04-08T04:26:26.636Z,995.38
2023-04-08T04:27:28.346Z,995.35
2023-04-08T04:28:30.075Z,995.43
2023-04-08T04:29:31.795Z,995.4
2023-04-08T04:30:51.413Z,995.38
2023-04-08T04:31:55.700Z,995.42
2023-04-08T04:32:57.443Z,995.43
2023-04-08T04:33:59.187Z,995.47
2023-04-08T04:35:00.855Z,995.42
2023-04-08T04:36:02.750Z,995.46
2023-04-08T04:37:04.316Z,995.48
2023-04-08T04:38:06.062Z,995.5
2023-04-08T04:39:07.796Z,995.51
2023-04-08T04:40:09.529Z,995.53
2023-04-08T04:41:11.276Z,995.5
2023-04-08T04:42:13.012Z,995.56
2023-04-08T04:43:14.744Z,995.53
2023-04-08T04:44:16.468Z,995.53
2023-04-08T04:45:18.208Z,995.51
2023-04-08T04:46:20.048Z,995.55
2023-04-08T04:47:21.697Z,995.52
2023-04-08T04:48:23.421Z,995.56
2023-04-08T04:49:25.139Z,995.49
2023-04-08T04:50:26.881Z,995.56
2023-04-08T04:51:28.592Z,995.51
2023-04-08T04:52:30.320Z,995.56
2023-04-08T04:53:32.074Z,995.54
2023-04-08T04:54:33.984Z,995.57
2023-04-08T04:55:37.008Z,995.59
2023-04-08T04:56:37.355Z,995.61
2023-04-08T04:57:39.036Z,995.53
2023-04-08T04:58:40.736Z,995.55
2023-04-08T04:59:42.476Z,995.59
2023-04-08T05:00:44.211Z,995.59
2023-04-08T05:01:46.073Z,995.61
2023-04-08T05:02:47.802Z,995.61
2023-04-08T05:03:49.424Z,995.58
2023-04-08T05:04:51.185Z,995.65
2023-04-08T05:05:52.938Z,995.58
2023-04-08T05:06:54.600Z,995.6
2023-04-08T05:07:56.355Z,995.64
2023-04-08T05:08:58.071Z,995.61
2023-04-08T05:09:59.792Z,995.66
2023-04-08T05:11:01.567Z,995.67
2023-04-08T05:12:03.296Z,995.68
2023-04-08T05:13:05.024Z,995.69
2023-04-08T05:14:06.758Z,995.67
2023-04-08T05:15:08.466Z,995.71
2023-04-08T05:16:10.325Z,995.68
2023-04-08T05:17:11.939Z,995.75
2023-04-08T05:18:13.681Z,995.73
2023-04-08T05:19:15.416Z,995.71
2023-04-08T05:20:17.751Z,995.72
2023-04-08T05:21:18.887Z,995.78
2023-04-08T05:22:20.624Z,995.79
2023-04-08T05:23:22.370Z,995.76
2023-04-08T05:24:24.114Z,995.77
2023-04-08T05:25:25.805Z,995.79
2023-04-08T05:26:27.563Z,995.79
2023-04-08T05:27:29.274Z,995.74
2023-04-08T05:28:31.002Z,995.74
2023-04-08T05:29:32.744Z,995.73
2023-04-08T05:30:34.467Z,995.74
2023-04-08T05:31:36.249Z,995.72
2023-04-08T05:32:38.000Z,995.77
2023-04-08T05:33:39.720Z,995.79
2023-04-08T05:34:41.400Z,995.72
2023-04-08T05:35:43.188Z,995.82
2023-04-08T05:36:44.898Z,995.81
2023-04-08T05:37:46.676Z,995.81
2023-04-08T05:38:48.791Z,995.76
2023-04-08T05:39:50.089Z,995.82
2023-04-08T05:40:51.836Z,995.8
2023-04-08T05:41:53.564Z,995.81
2023-04-08T05:42:55.280Z,995.79
2023-04-08T05:43:57.020Z,995.72
2023-04-08T05:44:58.757Z,995.81
2023-04-08T05:46:00.488Z,995.81
2023-04-08T05:47:02.297Z,995.81
2023-04-08T05:48:03.969Z,995.79
2023-04-08T05:49:05.708Z,995.84
2023-04-08T05:50:07.421Z,995.85
2023-04-08T05:51:09.161Z,995.88
2023-04-08T05:52:10.893Z,995.91
2023-04-08T05:53:12.628Z,995.91
2023-04-08T05:54:14.366Z,995.86
2023-04-08T05:55:16.100Z,995.97
2023-04-08T05:56:17.841Z,995.94
2023-04-08T05:57:19.553Z,995.94
2023-04-08T05:58:21.309Z,995.96
2023-04-08T05:59:23.006Z,996.03
2023-04-08T06:00:24.792Z,996.02
2023-04-08T06:01:26.478Z,996.01
2023-04-08T06:02:28.398Z,996.02
2023-04-08T06:03:30.115Z,996.03
2023-04-08T06:04:31.824Z,996.07
2023-04-08T06:05:33.429Z,996.1
2023-04-08T06:06:35.507Z,996.1
2023-04-08T06:07:36.883Z,996.11
2023-04-08T06:08:38.630Z,996.12
2023-04-08T06:09:40.376Z,996.1
2023-04-08T06:10:42.094Z,996.11
2023-04-08T06:11:43.835Z,996.15
2023-04-08T06:12:45.601Z,996.05
2023-04-08T06:13:47.304Z,996.1
2023-04-08T06:14:49.023Z,996.08
2023-04-08T06:15:50.767Z,996.12
2023-04-08T06:16:52.510Z,996.1
2023-04-08T06:17:54.268Z,996.12
2023-04-08T06:18:55.968Z,996.12
2023-04-08T06:19:57.691Z,996.08
2023-04-08T06:20:59.416Z,996.1
2023-04-08T06:22:01.487Z,996.09
2023-04-08T06:23:02.909Z,996.08
2023-04-08T06:24:04.619Z,996.07
2023-04-08T06:25:06.388Z,996.06
2023-04-08T06:26:08.100Z,996.08
2023-04-08T06:27:09.820Z,996.14
2023-04-08T06:28:11.573Z,996.13
2023-04-08T06:29:13.340Z,996.14
2023-04-08T06:30:15.011Z,996.11
2023-04-08T06:31:16.862Z,996.14
2023-04-08T06:32:18.486Z,996.21
2023-04-08T06:33:20.270Z,996.24
2023-04-08T06:34:21.975Z,996.3
2023-04-08T06:35:23.703Z,996.26
2023-04-08T06:36:25.416Z,996.27
2023-04-08T06:37:27.151Z,996.25
2023-04-08T06:38:28.913Z,996.29
2023-04-08T06:39:30.620Z,996.24
2023-04-08T06:40:32.370Z,996.29
2023-04-08T06:41:34.099Z,996.26
2023-04-08T06:42:35.804Z,996.3
2023-04-08T06:43:37.942Z,996.27
2023-04-08T06:44:39.285Z,996.28
2023-04-08T06:45:41.078Z,996.32
2023-04-08T06:46:42.825Z,996.33
2023-04-08T06:47:44.670Z,996.29
2023-04-08T06:48:46.287Z,996.27
2023-04-08T06:49:48.005Z,996.33
2023-04-08T06:50:49.723Z,996.3
2023-04-08T06:51:51.503Z,996.32
2023-04-08T06:52:53.241Z,996.35
2023-04-08T06:53:55.184Z,996.37
2023-04-08T06:54:56.676Z,996.38
2023-04-08T06:55:58.386Z,996.36
2023-04-08T06:57:00.121Z,996.38
2023-04-08T06:58:02.029Z,996.42
2023-04-08T06:59:41.579Z,996.41
2023-04-08T07:01:23.082Z,996.43
2023-04-08T07:03:10.509Z,996.44
2023-04-08T07:04:36.087Z,996.4
2023-04-08T07:05:38.942Z,996.45
2023-04-08T07:06:39.477Z,996.47
2023-04-08T07:07:41.221Z,996.47
2023-04-08T07:08:42.954Z,996.5
2023-04-08T07:09:44.696Z,996.5
2023-04-08T07:10:46.440Z,996.44
2023-04-08T07:11:48.325Z,996.49
2023-04-08T07:12:49.881Z,996.49
2023-04-08T07:13:51.624Z,996.51
2023-04-08T07:14:53.372Z,996.46
2023-04-08T07:15:55.117Z,996.46
2023-04-08T07:16:56.857Z,996.45
2023-04-08T07:17:58.632Z,996.5
2023-04-08T07:19:00.320Z,996.53
2023-04-08T07:20:02.051Z,996.58
2023-04-08T07:21:03.811Z,996.55
2023-04-08T07:22:05.516Z,996.54
2023-04-08T07:23:07.228Z,996.56
2023-04-08T07:24:08.953Z,996.52
2023-04-08T07:25:10.722Z,996.49
2023-04-08T07:26:12.581Z,996.51
2023-04-08T07:27:14.180Z,996.53
2023-04-08T07:28:15.928Z,996.54
2023-04-08T07:29:17.630Z,996.53
2023-04-08T07:30:19.406Z,996.46
2023-04-08T07:31:21.135Z,996.56
2023-04-08T07:32:22.853Z,996.54
2023-04-08T07:33:24.590Z,996.56
2023-04-08T07:34:26.320Z,996.53
2023-04-08T07:35:28.204Z,996.54
2023-04-08T07:36:29.787Z,996.57
2023-04-08T07:37:31.517Z,996.59
2023-04-08T07:38:33.261Z,996.56
2023-04-08T07:39:35.009Z,996.6
2023-04-08T07:40:36.726Z,996.63
2023-04-08T07:41:38.458Z,996.6
2023-04-08T07:42:40.923Z,996.6
2023-04-08T07:43:41.928Z,996.59
2023-04-08T07:44:43.639Z,996.62
2023-04-08T07:45:45.431Z,996.66
2023-04-08T07:46:47.110Z,996.63
2023-04-08T07:47:48.929Z,996.67
2023-04-08T07:48:51.050Z,996.65
2023-04-08T07:49:52.312Z,996.69
2023-04-08T07:51:08.110Z,996.71
2023-04-08T07:51:55.791Z,996.65
2023-04-08T07:52:57.593Z,996.67
2023-04-08T07:53:59.260Z,996.72
2023-04-08T07:55:01.010Z,996.69
2023-04-08T07:56:02.798Z,996.75
2023-04-08T07:57:04.450Z,996.77
2023-04-08T07:58:06.192Z,996.8
2023-04-08T07:59:07.925Z,996.77
2023-04-08T08:00:09.678Z,996.76
2023-04-08T08:01:11.403Z,996.79
2023-04-08T08:02:13.190Z,996.78
2023-04-08T08:03:14.897Z,996.81
2023-04-08T08:04:16.834Z,996.83
2023-04-08T08:05:18.439Z,996.82
2023-04-08T08:06:20.078Z,996.89
2023-04-08T08:07:21.813Z,996.86
2023-04-08T08:08:23.521Z,996.87
2023-04-08T08:09:25.276Z,996.9
2023-04-08T08:10:26.991Z,996.91
2023-04-08T08:11:28.738Z,996.94
2023-04-08T08:12:30.519Z,996.95
2023-04-08T08:13:32.195Z,996.94
2023-04-08T08:14:33.923Z,996.94
2023-04-08T08:15:35.729Z,996.93
2023-04-08T08:16:37.408Z,996.97
2023-04-08T08:17:39.220Z,997.01
2023-04-08T08:18:40.953Z,996.95
2023-04-08T08:19:42.613Z,997
2023-04-08T08:20:44.344Z,997.01
2023-04-08T08:21:46.119Z,997.02
2023-04-08T08:22:57.390Z,997.02
2023-04-08T08:23:49.762Z,997.06
2023-04-08T08:24:51.318Z,997.05
2023-04-08T08:25:53.007Z,997.08
2023-04-08T08:26:54.729Z,997.08
2023-04-08T08:27:56.462Z,997.1
2023-04-08T08:28:58.210Z,997.09
2023-04-08T08:29:59.946Z,997.1
2023-04-08T08:31:01.766Z,997.06
2023-04-08T08:32:03.444Z,997.08
2023-04-08T08:33:05.267Z,997.08
2023-04-08T08:34:06.873Z,997.1
2023-04-08T08:35:08.597Z,997.13
2023-04-08T08:36:10.352Z,997.11
2023-04-08T08:37:12.122Z,997.11
2023-04-08T08:38:13.847Z,997.15
2023-04-08T08:39:15.547Z,997.16
2023-04-08T08:40:17.321Z,997.14
2023-04-08T08:41:19.021Z,997.17
2023-04-08T08:42:20.740Z,997.16
2023-04-08T08:43:22.503Z,997.16
2023-04-08T08:44:24.234Z,997.14
2023-04-08T08:45:24.819Z,997.16
2023-04-08T08:46:26.573Z,997.16
2023-04-08T08:47:28.356Z,997.14
2023-04-08T08:48:29.986Z,997.21
2023-04-08T08:49:31.729Z,997.17
2023-04-08T08:50:33.437Z,997.21
2023-04-08T08:51:35.177Z,997.22
2023-04-08T08:52:36.902Z,997.24
2023-04-08T08:53:38.633Z,997.22
2023-04-08T08:54:40.365Z,997.21
2023-04-08T08:56:43.855Z,997.23
2023-04-08T08:57:45.571Z,997.21
2023-04-08T08:58:47.429Z,997.25
2023-04-08T08:59:49.050Z,997.25
2023-04-08T09:00:50.818Z,997.24
2023-04-08T09:01:52.627Z,997.3
2023-04-08T09:02:54.483Z,997.23
2023-04-08T09:03:56.217Z,997.29
2023-04-08T09:04:58.092Z,997.3
2023-04-08T09:05:59.444Z,997.31
2023-04-08T09:07:01.227Z,997.33
2023-04-08T09:08:02.939Z,997.33
2023-04-08T09:09:04.652Z,997.29
2023-04-08T09:10:06.384Z,997.32
2023-04-08T09:11:08.111Z,997.35
2023-04-08T09:12:09.852Z,997.39
2023-04-08T09:13:11.574Z,997.39
2023-04-08T09:14:13.322Z,997.39
2023-04-08T09:15:15.061Z,997.39
2023-04-08T09:16:16.959Z,997.39
2023-04-08T09:17:18.503Z,997.38
2023-04-08T09:18:20.268Z,997.38
2023-04-08T09:19:22.058Z,997.37
2023-04-08T09:20:23.739Z,997.4
2023-04-08T09:21:25.447Z,997.37
2023-04-08T09:22:27.186Z,997.41
2023-04-08T09:23:28.919Z,997.39
2023-04-08T09:24:30.686Z,997.41
2023-04-08T09:25:32.377Z,997.44
2023-04-08T09:26:34.117Z,997.46
2023-04-08T09:27:35.861Z,997.46
2023-04-08T09:28:37.642Z,997.47
2023-04-08T09:29:40.131Z,997.48
2023-04-08T09:30:41.053Z,997.4
2023-04-08T09:31:42.923Z,997.43
2023-04-08T09:32:44.552Z,997.49
2023-04-08T09:33:46.284Z,997.5
2023-04-08T09:34:48.011Z,997.5
2023-04-08T09:35:49.735Z,997.47
2023-04-08T09:36:51.484Z,997.47
2023-04-08T09:37:53.188Z,997.53
2023-04-08T09:38:54.952Z,997.53
2023-04-08T09:39:56.651Z,997.61
2023-04-08T09:40:58.379Z,997.59
2023-04-08T09:42:00.132Z,997.57
2023-04-08T09:43:01.859Z,997.6
2023-04-08T09:44:03.607Z,997.59
2023-04-08T09:45:05.426Z,997.57
2023-04-08T09:46:07.143Z,997.62
2023-04-08T09:47:08.808Z,997.61
2023-04-08T09:48:10.526Z,997.57
2023-04-08T09:49:12.329Z,997.64
2023-04-08T09:50:14.025Z,997.57
2023-04-08T09:51:15.739Z,997.62
2023-04-08T09:52:17.463Z,997.57
2023-04-08T09:53:20.279Z,997.58
2023-04-08T09:54:20.933Z,997.61
2023-04-08T09:55:22.674Z,997.61
2023-04-08T09:56:24.420Z,997.61
2023-04-08T09:57:26.141Z,997.59
2023-04-08T09:58:27.863Z,997.67
2023-04-08T09:59:29.608Z,997.63
2023-04-08T10:00:31.332Z,997.64
2023-04-08T10:01:33.258Z,997.66
2023-04-08T10:02:34.977Z,997.65
2023-04-08T10:03:36.701Z,997.62
2023-04-08T10:04:38.352Z,997.65
2023-04-08T10:05:40.038Z,997.63
2023-04-08T10:06:41.793Z,997.6
2023-04-08T10:07:43.477Z,997.64
2023-04-08T10:08:45.201Z,997.57
2023-04-08T10:09:46.955Z,997.66
2023-04-08T10:10:48.692Z,997.67
2023-04-08T10:11:50.441Z,997.62
2023-04-08T10:12:52.147Z,997.62
2023-04-08T10:13:53.889Z,997.59
2023-04-08T10:14:55.610Z,997.61
2023-04-08T10:15:57.350Z,997.59
2023-04-08T10:16:59.175Z,997.63
2023-04-08T10:18:00.871Z,997.63
2023-04-08T10:19:02.542Z,997.66
2023-04-08T10:20:04.291Z,997.62
2023-04-08T10:21:06.023Z,997.61
2023-04-08T10:22:08.146Z,997.63
2023-04-08T10:23:09.540Z,997.65
2023-04-08T10:24:11.217Z,997.61
2023-04-08T10:25:12.957Z,997.59
2023-04-08T10:26:14.684Z,997.67
2023-04-08T10:27:16.414Z,997.62
2023-04-08T10:28:18.202Z,997.6
2023-04-08T10:29:19.936Z,997.64
2023-04-08T10:30:21.631Z,997.6
2023-04-08T10:31:23.462Z,997.64
2023-04-08T10:32:25.108Z,997.58
2023-04-08T10:33:26.817Z,997.58
2023-04-08T10:34:28.554Z,997.59
2023-04-08T10:35:30.354Z,997.55
2023-04-08T10:36:32.020Z,997.61
2023-04-08T10:37:33.807Z,997.61
2023-04-08T10:38:35.489Z,997.61
2023-04-08T10:39:38.824Z,997.58
2023-04-08T10:40:38.985Z,997.57
2023-04-08T10:41:40.696Z,997.58
2023-04-08T10:42:42.472Z,997.63
2023-04-08T10:43:44.219Z,997.6
2023-04-08T10:44:45.894Z,997.58
2023-04-08T10:45:48.723Z,997.59
2023-04-08T10:46:49.375Z,997.58
2023-04-08T10:47:51.219Z,997.58
2023-04-08T10:48:52.835Z,997.61
2023-04-08T10:49:54.561Z,997.58
2023-04-08T10:50:56.294Z,997.59
2023-04-08T10:51:58.025Z,997.61
2023-04-08T10:52:59.754Z,997.59
2023-04-08T10:54:01.525Z,997.6
2023-04-08T11:04:47.068Z,997.61
2023-04-08T11:05:49.984Z,997.53
2023-04-08T11:06:51.671Z,997.61
2023-04-08T11:07:53.455Z,997.61
2023-04-08T11:08:55.189Z,997.57
2023-04-08T11:09:56.878Z,997.57
2023-04-08T11:10:58.572Z,997.57
2023-04-08T11:12:00.305Z,997.57
2023-04-08T11:13:02.029Z,997.61
2023-04-08T11:14:03.929Z,997.55
2023-04-08T11:15:05.500Z,997.55
2023-04-08T11:16:17.194Z,997.52
2023-04-08T11:17:08.996Z,997.5
2023-04-08T11:18:10.727Z,997.51
2023-04-08T11:19:12.468Z,997.46
2023-04-08T11:20:14.195Z,997.53
2023-04-08T11:21:15.918Z,997.52
2023-04-08T11:22:17.627Z,997.47
2023-04-08T11:23:19.372Z,997.45
2023-04-08T11:24:21.108Z,997.43
2023-04-08T11:25:22.912Z,997.44
2023-04-08T11:26:24.593Z,997.47
2023-04-08T11:27:26.327Z,997.41
2023-04-08T11:28:28.201Z,997.42
2023-04-08T11:29:29.792Z,997.44
2023-04-08T11:30:31.511Z,997.46
2023-04-08T11:31:33.313Z,997.51
2023-04-08T11:32:35.009Z,997.44
2023-04-08T11:33:36.782Z,997.43
2023-04-08T11:34:38.451Z,997.46
2023-04-08T11:35:40.269Z,997.44
2023-04-08T11:36:42.035Z,997.47
2023-04-08T11:37:43.671Z,997.5
2023-04-08T11:38:45.396Z,997.47
2023-04-08T11:39:47.129Z,997.48
2023-04-08T11:40:48.866Z,997.44
2023-04-08T11:41:50.592Z,997.46
2023-04-08T11:42:52.340Z,997.48
2023-04-08T11:43:54.073Z,997.42
2023-04-08T11:44:55.809Z,997.46
2023-04-08T11:45:57.606Z,997.37
2023-04-08T11:46:59.278Z,997.4
2023-04-08T11:48:02.421Z,997.44
2023-04-08T11:49:02.836Z,997.42
2023-04-08T11:50:04.531Z,997.44
2023-04-08T11:51:06.255Z,997.39
2023-04-08T11:52:07.960Z,997.43
2023-04-08T11:53:09.652Z,997.41
2023-04-08T11:54:11.391Z,997.35
2023-04-08T11:55:13.148Z,997.39
2023-04-08T11:56:14.911Z,997.29
2023-04-08T11:57:16.609Z,997.32
2023-04-08T11:58:18.384Z,997.35
2023-04-08T11:59:20.060Z,997.32
2023-04-08T12:00:21.896Z,997.24
2023-04-08T12:01:23.560Z,997.24
2023-04-08T12:02:25.442Z,997.27
2023-04-08T12:03:27.152Z,997.22
2023-04-08T12:04:28.917Z,997.27
2023-04-08T12:05:30.496Z,997.27
2023-04-08T12:06:32.296Z,997.23
2023-04-08T12:07:33.944Z,997.25
2023-04-08T12:08:35.753Z,997.28
2023-04-08T12:09:37.396Z,997.27
2023-04-08T12:10:39.283Z,997.29
2023-04-08T12:11:40.906Z,997.28
2023-04-08T12:12:42.796Z,997.28
2023-04-08T12:13:44.496Z,997.32
2023-04-08T12:14:46.075Z,997.32
2023-04-08T12:15:47.953Z,997.3
2023-04-08T12:16:49.699Z,997.2
2023-04-08T12:17:51.363Z,997.17
2023-04-08T12:18:53.008Z,997.17
2023-04-08T12:19:54.737Z,997.19
2023-04-08T12:20:56.511Z,997.17
2023-04-08T12:21:58.204Z,997.1
2023-04-08T12:22:59.947Z,997.09
2023-04-08T12:24:01.763Z,997.12
2023-04-08T12:25:03.436Z,997.12
2023-04-08T12:26:05.160Z,997.1
2023-04-08T12:27:06.880Z,997.09
2023-04-08T12:28:08.631Z,997.08
2023-04-08T12:29:10.353Z,997.07
2023-04-08T12:30:12.196Z,997.11
2023-04-08T12:31:13.840Z,997.09
2023-04-08T12:32:15.572Z,997.1
2023-04-08T12:33:17.296Z,997.14
2023-04-08T12:34:19.032Z,997.1
2023-04-08T12:35:20.761Z,997.11
2023-04-08T12:36:22.525Z,997.12
2023-04-08T12:37:24.210Z,997.16
2023-04-08T12:38:25.950Z,997.16
2023-04-08T12:39:27.701Z,997.11
2023-04-08T12:40:29.441Z,997.11
2023-04-08T12:41:31.176Z,997.12
2023-04-08T12:42:32.900Z,997.08
2023-04-08T12:43:34.612Z,997.06
2023-04-08T12:44:36.378Z,997.08
2023-04-08T12:45:38.127Z,997.06
2023-04-08T12:46:39.864Z,997.06
2023-04-08T12:47:41.622Z,997.11
2023-04-08T12:48:43.802Z,997.08
2023-04-08T12:50:46.787Z,997.15
2023-04-08T12:51:48.496Z,997.11
2023-04-08T12:52:50.226Z,997.14
2023-04-08T12:53:51.964Z,997.14
2023-04-08T12:54:53.716Z,997.14
2023-04-08T12:55:55.505Z,997.1
2023-04-08T12:56:57.154Z,997.08
2023-04-08T12:57:58.886Z,997.13
2023-04-08T12:59:00.654Z,997.06
2023-04-08T13:00:02.407Z,997.1
2023-04-08T13:01:04.243Z,997.06
2023-04-08T13:02:05.953Z,997.07
2023-04-08T13:03:07.729Z,997.06
2023-04-08T13:04:09.465Z,997.04
2023-04-08T13:05:11.091Z,997.07
2023-04-08T13:06:12.804Z,997.09
2023-04-08T13:07:14.519Z,997.09
2023-04-08T13:08:16.299Z,997.07